EWG7XA EDDK-LIRP
Flight info
| Callsign | EWG7XA |
|---|---|
| Flight time | N/A |
| Altitude | 37000 |
| Route | KUMIK Y854 BOMBI DCT GIGET DCT ABUKA DCT BATUB DCT TIRUL M738 NATAG DCT LORLO DCT ATPED DCT LEGLO DCT VOG DCT UNITA DCT TIDKA L50 KONER |
| Aircraft | A320/M-SDE2E3FGIJ1RWXYZ/HB1 |
Departure
| Time | 2026-05-04 10:45 |
|---|---|
| Airport | Cologne Bonn Airport (EDDK) |
Arrival
| Time | N/A |
|---|---|
| Airport | Pisa International Airport (LIRP) |
| Time | Latitude | Longitude | Altitude | Speed | Heading |
|---|---|---|---|---|---|
| 2026-05-04 10:16 | 50.88171 | 7.11946 | 232 ft | 0 kts | 216° |
| 2026-05-04 10:35 | 50.88179 | 7.11955 | 233 ft | 4 kts | 216° |
| 2026-05-04 10:35 | 50.88200 | 7.11980 | 236 ft | 4 kts | 213° |
| 2026-05-04 10:35 | 50.88224 | 7.11999 | 234 ft | 4 kts | 190° |
| 2026-05-04 10:36 | 50.88247 | 7.11997 | 234 ft | 4 kts | 139° |
| 2026-05-04 10:36 | 50.88252 | 7.11989 | 234 ft | 0 kts | 126° |
| 2026-05-04 10:39 | 50.88104 | 7.12310 | 232 ft | 8 kts | 126° |
| 2026-05-04 10:39 | 50.88075 | 7.12374 | 232 ft | 7 kts | 124° |
| 2026-05-04 10:39 | 50.88046 | 7.12448 | 232 ft | 8 kts | 119° |
| 2026-05-04 10:40 | 50.88022 | 7.12515 | 232 ft | 6 kts | 119° |
| 2026-05-04 10:40 | 50.88003 | 7.12569 | 232 ft | 5 kts | 119° |
| 2026-05-04 10:40 | 50.87988 | 7.12612 | 232 ft | 4 kts | 119° |
| 2026-05-04 10:40 | 50.87985 | 7.12655 | 232 ft | 6 kts | 89° |
| 2026-05-04 10:41 | 50.87990 | 7.12712 | 234 ft | 5 kts | 78° |
| 2026-05-04 10:41 | 50.87996 | 7.12746 | 240 ft | 3 kts | 75° |
| 2026-05-04 10:41 | 50.87999 | 7.12766 | 237 ft | 0 kts | 74° |
| 2026-05-04 10:44 | 50.86372 | 7.15345 | 530 ft | 163 kts | 139° |
| 2026-05-04 10:45 | 50.85537 | 7.16546 | 1364 ft | 162 kts | 140° |
| 2026-05-04 10:45 | 50.84677 | 7.17739 | 2075 ft | 166 kts | 140° |
| 2026-05-04 10:45 | 50.83753 | 7.19012 | 2473 ft | 186 kts | 141° |
| 2026-05-04 10:45 | 50.82732 | 7.20429 | 2862 ft | 207 kts | 140° |
| 2026-05-04 10:46 | 50.81637 | 7.22142 | 3318 ft | 228 kts | 129° |
| 2026-05-04 10:46 | 50.80956 | 7.24419 | 4207 ft | 238 kts | 102° |
| 2026-05-04 10:46 | 50.80812 | 7.27114 | 4755 ft | 260 kts | 95° |
| 2026-05-04 10:46 | 50.80720 | 7.30072 | 5386 ft | 278 kts | 94° |
| 2026-05-04 10:47 | 50.80604 | 7.33142 | 6382 ft | 279 kts | 96° |
| 2026-05-04 10:47 | 50.80416 | 7.36242 | 7243 ft | 285 kts | 98° |
| 2026-05-04 10:47 | 50.80172 | 7.39369 | 8167 ft | 289 kts | 99° |
| 2026-05-04 10:47 | 50.79899 | 7.42520 | 9021 ft | 294 kts | 99° |
| 2026-05-04 10:49 | 50.79300 | 7.67865 | 13884 ft | 361 kts | 82° |
| 2026-05-04 10:49 | 50.79749 | 7.71799 | 14565 ft | 365 kts | 82° |
| 2026-05-04 10:50 | 50.80196 | 7.75767 | 15227 ft | 370 kts | 82° |
| 2026-05-04 10:51 | 50.81823 | 8.04873 | 19527 ft | 389 kts | 114° |
| 2026-05-04 10:52 | 50.80610 | 8.08615 | 20078 ft | 387 kts | 128° |
| 2026-05-04 10:52 | 50.78874 | 8.11834 | 20634 ft | 385 kts | 141° |
| 2026-05-04 10:52 | 50.76731 | 8.14347 | 21164 ft | 383 kts | 152° |
| 2026-05-04 10:54 | 50.61018 | 8.30099 | 24513 ft | 405 kts | 152° |
| 2026-05-04 10:54 | 50.58630 | 8.32487 | 24955 ft | 407 kts | 152° |
| 2026-05-04 10:56 | 50.41670 | 8.49348 | 27909 ft | 420 kts | 153° |
| 2026-05-04 10:56 | 50.39193 | 8.51795 | 28306 ft | 422 kts | 153° |
| 2026-05-04 10:56 | 50.36689 | 8.54223 | 28706 ft | 423 kts | 154° |
| 2026-05-04 10:57 | 50.34158 | 8.56488 | 29098 ft | 425 kts | 156° |
| 2026-05-04 10:57 | 50.31548 | 8.58672 | 29491 ft | 425 kts | 157° |
| 2026-05-04 10:57 | 50.28913 | 8.60803 | 29882 ft | 427 kts | 158° |
| 2026-05-04 10:57 | 50.26267 | 8.62929 | 30220 ft | 429 kts | 158° |
| 2026-05-04 10:58 | 50.23611 | 8.65085 | 30520 ft | 431 kts | 157° |
| 2026-05-04 10:58 | 50.20946 | 8.67281 | 30814 ft | 433 kts | 157° |
| 2026-05-04 10:58 | 50.18280 | 8.69503 | 31104 ft | 435 kts | 156° |
| 2026-05-04 10:58 | 50.15600 | 8.71748 | 31394 ft | 438 kts | 156° |
| 2026-05-04 10:59 | 50.12914 | 8.73999 | 31682 ft | 439 kts | 157° |
| 2026-05-04 10:59 | 50.10227 | 8.76225 | 32082 ft | 437 kts | 159° |
| 2026-05-04 10:59 | 50.07460 | 8.77927 | 32468 ft | 429 kts | 168° |
| 2026-05-04 10:59 | 50.04560 | 8.78881 | 32857 ft | 423 kts | 178° |
| 2026-05-04 11:00 | 50.01646 | 8.79076 | 33241 ft | 417 kts | 187° |
| 2026-05-04 11:01 | 49.81781 | 8.75057 | 35543 ft | 411 kts | 191° |
| 2026-05-04 11:02 | 49.78939 | 8.74476 | 35821 ft | 412 kts | 191° |
| 2026-05-04 11:02 | 49.76095 | 8.73896 | 36096 ft | 412 kts | 191° |
| 2026-05-04 11:05 | 49.36662 | 8.74131 | 37014 ft | 425 kts | 162° |
| 2026-05-04 11:06 | 49.32574 | 8.76696 | 37014 ft | 425 kts | 162° |
| 2026-05-04 11:06 | 49.27081 | 8.80057 | 37016 ft | 425 kts | 162° |
| 2026-05-04 11:10 | 48.89635 | 9.03384 | 36991 ft | 426 kts | 162° |
| 2026-05-04 11:12 | 48.67584 | 9.16899 | 36982 ft | 427 kts | 162° |
| 2026-05-04 11:12 | 48.62105 | 9.20237 | 36985 ft | 427 kts | 162° |
| 2026-05-04 11:13 | 48.56581 | 9.23592 | 36988 ft | 427 kts | 162° |
| 2026-05-04 11:13 | 48.51055 | 9.26940 | 36998 ft | 428 kts | 162° |
| 2026-05-04 11:14 | 48.50121 | 9.27505 | 37000 ft | 428 kts | 162° |
| 2026-05-04 11:16 | 48.23372 | 9.43600 | 37008 ft | 428 kts | 162° |
| 2026-05-04 11:16 | 48.17833 | 9.46918 | 36995 ft | 429 kts | 162° |
| 2026-05-04 11:17 | 48.12324 | 9.50209 | 36998 ft | 429 kts | 162° |
| 2026-05-04 11:19 | 47.93748 | 9.64747 | 36996 ft | 436 kts | 149° |
| 2026-05-04 11:19 | 47.91278 | 9.67276 | 36995 ft | 436 kts | 149° |
| 2026-05-04 11:19 | 47.86278 | 9.72382 | 36996 ft | 436 kts | 149° |
| 2026-05-04 11:20 | 47.81271 | 9.77477 | 36985 ft | 436 kts | 149° |
| 2026-05-04 11:20 | 47.76249 | 9.82566 | 36983 ft | 436 kts | 149° |
| 2026-05-04 11:22 | 47.56220 | 10.02766 | 36994 ft | 436 kts | 149° |
| 2026-05-04 11:23 | 47.51194 | 10.07801 | 37006 ft | 436 kts | 149° |
| 2026-05-04 11:25 | 47.33568 | 10.25371 | 37037 ft | 437 kts | 149° |
| 2026-05-04 11:25 | 47.28555 | 10.30363 | 37038 ft | 437 kts | 149° |
| 2026-05-04 11:27 | 47.05770 | 10.52503 | 37071 ft | 434 kts | 158° |
| 2026-05-04 11:28 | 47.00114 | 10.55406 | 37062 ft | 430 kts | 166° |
| 2026-05-04 11:28 | 46.94389 | 10.57986 | 37080 ft | 430 kts | 166° |
| 2026-05-04 11:29 | 46.88659 | 10.60572 | 37077 ft | 430 kts | 166° |
| 2026-05-04 11:29 | 46.82975 | 10.63139 | 37072 ft | 430 kts | 166° |
| 2026-05-04 11:31 | 46.62927 | 10.63712 | 37097 ft | 419 kts | 199° |
| 2026-05-04 11:33 | 46.43417 | 10.55178 | 37106 ft | 419 kts | 199° |